Latest Weather Observations for Yarram Airport

IDV60801

Issued at 11:35 am EDT Saturday 25 October 2014 (issued every 30 minutes, with the page automatically refreshed every 10 minutes)

About weather observations | Map of weather stations | Latest weather observations for VIC | Other Formats
Station Details ID: 085151 Name: YARRAM AIRPORT Lat: -38.56 Lon: 146.75 Height: 17.9 m
Data from the previous 72 hours. | See also: Recent months at Yarram Airport
Date/Time
EDT
Temp
°C
App
Temp
°C
Dew
Point
Rel
Hum
%
Delta-T
°C
Wind Press
QNH
hPa
Press
MSL
hPa
Rain
since 9 am
mm
Dir
 
Spd
km/h
Gust
km/h
Spd
kts
Gust
kts
25/11:30am 16.8 13.8 12.1 74 2.6 SW 19 26 10 14 1016.8 1016.8 0.0
25/11:00am 16.4 13.0 12.6 78 2.1 SW 22 30 12 16 1017.4 1017.4 0.0
25/10:30am 16.3 12.3 11.9 75 2.4 WSW 24 32 13 17 1017.5 1017.5 0.0
25/10:00am 15.5 12.2 11.7 78 2.0 WSW 20 30 11 16 1017.5 1017.5 0.0
25/09:30am 14.7 10.9 11.1 79 1.9 WSW 22 30 12 16 1017.5 1017.5 0.0
25/09:00am 14.9 11.6 11.7 81 1.7 WSW 20 28 11 15 1017.4 1017.4 0.2
25/08:30am 14.5 10.8 11.5 82 1.6 WSW 22 30 12 16 1017.2 1017.2 0.2
25/08:00am 13.9 11.4 11.2 84 1.4 W 15 20 8 11 1017.2 1017.2 0.2
25/07:30am 13.6 10.8 11.5 87 1.1 WSW 17 20 9 11 1016.9 1016.9 0.2
25/07:00am 13.6 10.5 11.5 87 1.1 WSW 19 22 10 12 1016.4 1016.4 0.2
25/06:30am 13.4 9.3 11.5 88 1.0 WSW 24 32 13 17 1016.4 1016.4 0.2
25/06:00am 13.3 9.6 11.5 89 1.0 WSW 22 30 12 16 1016.0 1016.0 0.2
25/05:30am 13.6 10.3 11.7 88 1.0 WSW 20 28 11 15 1015.7 1015.7 0.2
25/05:00am 13.8 9.2 11.1 84 1.4 W 26 35 14 19 1015.2 1015.2 0.2
25/04:30am 13.7 8.8 11.4 86 1.2 W 28 37 15 20 1015.1 1015.1 0.2
25/04:00am 13.9 9.0 11.4 85 1.3 WSW 28 37 15 20 1015.0 1015.0 0.2
25/03:30am 13.8 10.1 11.5 86 1.2 WSW 22 28 12 15 1015.1 1015.1 0.2
25/03:00am 13.7 9.7 11.7 88 1.1 WSW 24 35 13 19 1014.8 1014.8 0.2
25/02:30am 14.2 8.1 11.7 85 1.3 W 35 48 19 26 1014.5 1014.5 0.2
25/02:00am 14.5 9.0 12.5 88 1.1 W 33 43 18 23 1014.4 1014.4 0.2
25/01:30am 14.6 9.3 12.5 87 1.1 WSW 32 43 17 23 1014.5 1014.5 0.2
25/01:00am 14.0 9.3 11.9 87 1.1 W 28 35 15 19 1014.6 1014.6 0.2
25/12:30am 14.0 10.1 12.2 89 1.0 WSW 24 32 13 17 1014.4 1014.4 0.2
25/12:00am 14.8 10.9 12.1 84 1.5 W 24 33 13 18 1014.2 1014.2 0.2
 
Date/Time
EDT
Temp
°C
App
Temp
°C
Dew
Point
Rel
Hum
%
Delta-T
°C
Wind Press
QNH
hPa
Press
MSL
hPa
Rain
since 9 am
mm
Dir
 
Spd
km/h
Gust
km/h
Spd
kts
Gust
kts
24/11:30pm 15.3 11.9 12.4 83 1.6 W 22 35 12 19 1014.2 1014.2 0.2
24/11:00pm 15.2 11.6 13.2 88 1.1 W 24 33 13 18 1014.1 1014.1 0.2
24/10:30pm 15.2 12.8 14.4 95 0.5 W 20 26 11 14 1013.9 1013.9 0.2
24/10:00pm 15.8 10.5 14.3 91 0.9 WSW 35 44 19 24 1013.7 1013.7 0.2
24/09:30pm 15.8 11.5 14.3 91 0.9 WSW 30 37 16 20 1013.4 1013.4 0.2
24/09:00pm 16.9 12.9 14.0 83 1.6 WSW 28 37 15 20 1013.0 1013.0 0.2
24/08:30pm 16.6 14.8 14.4 87 1.3 WSW 17 24 9 13 1012.1 1012.1 0.2
24/08:00pm 17.2 15.3 14.1 82 1.8 WSW 17 20 9 11 1011.6 1011.6 0.2
24/07:30pm 18.4 16.5 14.3 77 2.4 WSW 17 22 9 12 1011.2 1011.2 0.2
24/07:00pm 20.1 17.6 14.0 68 3.5 SW 20 28 11 15 1010.7 1010.7 0.2
24/06:30pm 21.7 19.4 14.6 64 4.2 SW 20 26 11 14 1010.2 1010.2 0.2
24/06:00pm 23.0 20.0 15.8 64 4.3 SW 26 33 14 18 1009.9 1009.9 0.2
24/05:30pm 24.2 23.9 19.1 73 3.3 S 19 24 10 13 1009.7 1009.7 0.2
24/05:00pm 25.2 27.6 19.6 71 3.6 SSE 6 13 3 7 1009.3 1009.3 0.2
24/04:30pm 24.4 26.4 19.2 73 3.3 ESE 7 11 4 6 1009.5 1009.5 0.2
24/04:00pm 23.7 25.8 19.0 75 3.0 SE 6 9 3 5 1009.7 1009.7 0.2
24/03:30pm 23.0 24.9 18.5 76 2.8 ESE 6 9 3 5 1009.7 1009.7 0.2
24/03:00pm 22.4 23.1 18.0 76 2.7 SE 11 13 6 7 1009.7 1009.7 0.2
24/02:30pm 24.2 25.9 20.1 78 2.7 SSE 11 15 6 8 1010.2 1010.2 0.2
24/02:00pm 23.6 24.9 19.3 77 2.7 S 11 15 6 8 1010.3 1010.3 0.2
24/01:30pm 23.7 25.8 19.0 75 3.0 S 6 9 3 5 1010.4 1010.4 0.2
24/01:00pm 22.4 24.3 18.6 79 2.4 SSW 6 11 3 6 1010.6 1010.6 0.2
24/12:30pm 21.7 23.2 18.1 80 2.2 SW 7 13 4 7 1010.9 1010.9 0.2
24/12:00pm 20.6 22.8 17.4 82 2.0 WNW 2 9 1 5 1011.1 1011.1 0.0
24/11:30am 19.8 21.9 16.3 80 2.1 CALM 0 0 0 0 1011.5 1011.5 0.0
24/11:00am 19.6 20.9 17.6 88 1.2 NNE 7 11 4 6 1011.9 1011.9 0.0
24/10:30am 18.4 19.6 16.9 91 0.9 ENE 6 11 3 6 1012.1 1012.1 0.0
24/10:00am 16.9 17.7 16.4 97 0.3 ENE 7 9 4 5 1012.6 1012.6 0.0
24/09:30am 16.1 16.4 16.1 100 0.0 NE 9 13 5 7 1012.7 1012.7 0.0
24/09:00am 15.8 15.6 15.8 100 0.0 ENE 11 19 6 10 1013.0 1013.0 1.0
24/08:30am 15.9 15.0 15.9 100 0.0 ENE 15 24 8 13 1013.4 1013.4 1.0
24/08:00am 15.6 14.6 15.6 100 0.0 ENE 15 20 8 11 1013.8 1013.8 1.0
24/07:30am 15.7 15.5 15.7 100 0.0 ENE 11 13 6 7 1014.1 1014.1 1.0
24/07:00am 15.7 15.1 15.7 100 0.0 ENE 13 22 7 12 1014.2 1014.2 1.0
24/06:30am 15.7 14.4 15.7 100 0.0 ENE 17 24 9 13 1014.3 1014.3 1.0
24/06:00am 15.8 15.3 15.8 100 0.0 E 13 20 7 11 1014.4 1014.4 1.0
24/05:30am 15.8 14.9 15.8 100 0.0 ENE 15 20 8 11 1014.6 1014.6 1.0
24/05:00am 15.8 14.5 15.8 100 0.0 ENE 17 26 9 14 1014.7 1014.7 1.0
24/04:30am 15.7 14.4 15.7 100 0.0 ENE 17 32 9 17 1014.9 1014.9 1.0
24/04:00am 15.6 13.6 15.6 100 0.0 ENE 20 32 11 17 1015.0 1015.0 1.0
24/03:30am 15.5 13.7 15.5 100 0.0 ENE 19 28 10 15 1015.6 1015.6 1.0
24/03:00am 15.4 13.6 15.4 100 0.0 E 19 28 10 15 1016.1 1016.1 1.0
24/02:30am 15.3 13.4 15.3 100 0.0 ENE 19 28 10 15 1016.6 1016.6 0.8
24/02:00am 15.3 12.5 15.3 100 0.0 E 24 35 13 19 1017.0 1017.0 0.8
24/01:30am 15.2 12.3 15.2 100 0.0 E 24 39 13 21 1017.7 1017.7 0.8
24/01:00am 15.0 12.8 15.0 100 0.0 E 20 33 11 18 1018.2 1018.2 0.6
24/12:30am 14.9 11.9 14.9 100 0.0 E 24 35 13 19 1018.6 1018.6 0.4
24/12:00am 14.9 11.9 14.9 100 0.0 E 24 35 13 19 1018.9 1018.9 0.0
 
Date/Time
EDT
Temp
°C
App
Temp
°C
Dew
Point
Rel
Hum
%
Delta-T
°C
Wind Press
QNH
hPa
Press
MSL
hPa
Rain
since 9 am
mm
Dir
 
Spd
km/h
Gust
km/h
Spd
kts
Gust
kts
23/11:30pm 14.9 11.9 14.9 100 0.0 E 24 32 13 17 1019.2 1019.2 0.0
23/11:00pm 14.8 11.4 14.8 100 0.0 E 26 35 14 19 1019.5 1019.5 0.0
23/10:30pm 14.7 11.7 14.7 100 0.0 E 24 35 13 19 1019.8 1019.8 0.0
23/10:00pm 14.6 11.5 14.4 99 0.1 E 24 41 13 22 1020.1 1020.1 0.0
23/09:30pm 14.7 11.2 14.4 98 0.2 E 26 39 14 21 1020.3 1020.3 0.0
23/09:00pm 14.5 11.2 14.0 97 0.3 E 24 35 13 19 1020.4 1020.4 0.0
23/08:30pm 14.5 10.8 13.9 96 0.3 E 26 35 14 19 1020.5 1020.5 0.0
23/08:00pm 14.6 11.2 13.8 95 0.4 E 24 35 13 19 1020.3 1020.3 0.0
23/07:30pm 14.5 10.4 13.7 95 0.4 E 28 41 15 22 1020.3 1020.3 0.0
23/07:00pm 14.6 11.1 13.5 93 0.6 E 24 39 13 21 1020.2 1020.2 0.0
23/06:30pm 14.7 11.2 13.4 92 0.7 E 24 43 13 23 1020.1 1020.1 0.0
23/06:00pm 14.7 10.8 13.2 91 0.8 E 26 44 14 24 1020.0 1020.0 0.0
23/05:30pm 15.2 10.6 13.6 90 0.9 E 30 41 16 22 1020.2 1020.2 0.0
23/05:00pm 15.7 12.2 13.5 87 1.2 E 24 32 13 17 1020.1 1020.1 0.0
23/04:30pm 16.0 11.5 13.7 86 1.3 E 30 39 16 21 1020.1 1020.1 0.0
23/04:00pm 16.4 13.3 14.4 88 1.1 E 24 35 13 19 1020.2 1020.2 0.0
23/03:30pm 15.8 11.6 13.6 87 1.2 E 28 37 15 20 1020.3 1020.3 0.0
23/03:00pm 16.0 11.9 13.7 86 1.3 E 28 39 15 21 1020.5 1020.5 0.0
23/02:30pm 16.0 11.7 13.3 84 1.5 E 28 39 15 21 1020.9 1020.9 0.0
23/02:00pm 15.9 12.3 13.0 83 1.6 E 24 33 13 18 1021.2 1021.2 0.0
23/01:30pm 15.7 11.3 12.8 83 1.6 E 28 37 15 20 1021.3 1021.3 0.0
23/01:00pm 15.7 12.2 13.4 86 1.3 E 24 37 13 20 1021.3 1021.3 0.0
23/12:30pm 15.5 12.0 13.3 87 1.2 E 24 39 13 21 1021.4 1021.4 0.0
23/12:00pm 15.7 11.5 13.4 86 1.3 E 28 35 15 19 1021.6 1021.6 0.0
23/11:30am 15.6 12.1 13.4 87 1.2 E 24 35 13 19 1021.7 1021.7 0.0
23/11:00am 15.8 13.2 13.8 88 1.1 E 20 33 11 18 1021.8 1021.8 0.0
23/10:30am 15.6 13.7 14.1 91 0.8 E 17 28 9 15 1021.6 1021.6 0.0
23/10:00am 15.5 13.7 14.5 94 0.6 E 17 28 9 15 1021.4 1021.4 0.0
23/09:30am 15.3 14.0 14.8 97 0.3 E 15 20 8 11 1021.2 1021.2 0.0
23/09:00am 15.4 15.6 14.3 93 0.6 S 6 7 3 4 1020.9 1020.9 0.0
23/08:30am 15.4 15.1 14.3 93 0.6 SW 9 11 5 6 1020.8 1020.8 0.0
23/08:00am 15.0 15.0 14.2 95 0.5 SW 7 9 4 5 1020.5 1020.5 0.0
23/07:30am 14.2 14.0 13.7 97 0.3 WSW 7 11 4 6 1020.1 1020.1 0.0
23/07:00am 13.5 13.2 13.3 99 0.1 W 7 11 4 6 1019.8 1019.8 0.0
23/06:30am 12.7 11.4 12.4 98 0.2 WSW 11 15 6 8 1019.4 1019.4 0.0
23/06:00am 13.6 11.7 13.0 96 0.3 SW 15 19 8 10 1018.9 1018.9 0.0
23/05:30am 13.9 11.3 13.3 96 0.3 SW 19 24 10 13 1018.2 1018.2 0.0
23/05:00am 14.2 11.7 13.4 95 0.4 SW 19 22 10 12 1017.7 1017.7 0.0
23/04:30am 14.5 11.5 13.7 95 0.4 SW 22 30 12 16 1017.1 1017.1 0.0
23/04:00am 15.2 12.3 14.1 93 0.6 SW 22 30 12 16 1016.3 1016.3 0.0
23/03:30am 15.9 13.1 13.2 84 1.5 SSW 20 30 11 16 1015.5 1015.5 0.0
23/03:00am 17.1 15.3 12.2 73 2.7 WSW 13 20 7 11 1014.8 1014.8 0.0
23/02:30am 20.1 17.0 12.3 61 4.4 NNW 20 33 11 18 1015.2 1015.2 0.0
23/02:00am 19.8 14.9 14.2 70 3.2 NW 33 46 18 25 1016.8 1016.8 0.0
23/01:30am 18.5 16.4 16.1 86 1.4 W 22 32 12 17 1017.1 1017.1 0.0
23/01:00am 18.0 16.8 16.0 88 1.2 WNW 17 20 9 11 1016.9 1016.9 0.0
23/12:30am 16.3 16.1 15.8 97 0.3 W 11 17 6 9 1016.6 1016.6 0.0
23/12:00am 15.6 15.8 14.8 95 0.5 NNE 7 9 4 5 1016.3 1016.3 0.0
 
Date/Time
EDT
Temp
°C
App
Temp
°C
Dew
Point
Rel
Hum
%
Delta-T
°C
Wind Press
QNH
hPa
Press
MSL
hPa
Rain
since 9 am
mm
Dir
 
Spd
km/h
Gust
km/h
Spd
kts
Gust
kts
22/11:30pm 16.2 17.1 15.1 93 0.6 SE 4 9 2 5 1016.1 1016.1 0.0
22/11:00pm 16.3 16.4 14.5 89 1.0 NW 7 15 4 8 1016.5 1016.5 0.0
22/10:30pm 16.5 15.4 14.2 86 1.3 N 13 15 7 8 1016.1 1016.1 0.0
22/10:00pm 16.8 15.8 14.6 87 1.3 SE 13 17 7 9 1016.6 1016.6 0.0
22/09:30pm 16.9 16.6 14.4 85 1.4 SE 9 11 5 6 1016.1 1016.1 0.0
22/09:00pm 18.3 17.2 13.2 72 2.9 NE 11 17 6 9 1015.7 1015.7 0.0
22/08:30pm 18.5 17.6 14.8 79 2.2 E 13 19 7 10 1015.3 1015.3 0.0
22/08:00pm 18.8 17.9 14.9 78 2.3 E 13 17 7 9 1015.1 1015.1 0.0
22/07:30pm 19.0 18.6 15.3 79 2.2 ESE 11 13 6 7 1015.2 1015.2 0.0
22/07:00pm 21.8 21.6 14.7 64 4.2 E 9 13 5 7 1014.9 1014.9 0.0
22/06:30pm 23.8 23.8 15.3 59 5.1 E 9 13 5 7 1015.0 1015.0 0.0
22/06:00pm 24.9 23.4 14.1 51 6.4 ENE 15 20 8 11 1014.8 1014.8 0.0
22/05:30pm 25.4 23.4 13.9 49 6.8 E 17 24 9 13 1015.2 1015.2 0.0
22/05:00pm 26.0 24.5 15.4 52 6.4 ESE 17 20 9 11 1015.4 1015.4 0.0
22/04:30pm 26.5 24.2 12.9 43 7.9 E 17 22 9 12 1015.4 1015.4 0.0
22/04:00pm 27.0 25.1 14.1 45 7.7 E 17 20 9 11 1015.7 1015.7 0.0
22/03:30pm 27.1 25.1 13.8 44 7.9 E 17 22 9 12 1016.0 1016.0 0.0
22/03:00pm 27.6 25.9 14.6 45 7.8 E 17 20 9 11 1016.3 1016.3 0.0
22/02:30pm 27.8 26.5 13.7 42 8.4 E 13 20 7 11 1016.5 1016.5 0.0
22/02:00pm 28.3 27.8 14.9 44 8.1 ESE 11 19 6 10 1016.6 1016.6 0.0
22/01:30pm 28.3 28.6 14.9 44 8.1 SSW 7 13 4 7 1017.1 1017.1 0.0
22/01:00pm 27.5 27.1 13.1 41 8.5 SE 7 13 4 7 1017.3 1017.3 0.0
22/12:30pm 26.7 27.4 16.0 52 6.6 SSE 7 13 4 7 1017.9 1017.9 0.0
22/12:00pm 26.1 26.9 17.2 58 5.5 SSE 9 13 5 7 1018.2 1018.2 0.0

Other Formats:

Comma delimited format used in spreadsheet applications
http://www.bom.gov.au/fwo/IDV60801/IDV60801.95890.axf

JavaScript Object Notation format (JSON) in row-major order
http://www.bom.gov.au/fwo/IDV60801/IDV60801.95890.json